Latest METARs, TAFs and NOTAMs for FALA


---------------------------------------------------------------------------
	(OBSERVATIONS)
FALA 242200Z AUTO 00000KT //// // ////// 07/M03 Q1027=
FALA 242100Z AUTO 16003KT 120V180 //// // ////// 10/M04 Q1027=
FALA 242000Z 00000KT CAVOK 11/M03 Q1027 NOSIG=
---------------------------------------------------------------------------
	(TERMINAL AREA FORECAST)
FALA 242200Z 2500/2524 VRB03KT CAVOK
    BECMG 2508/2510 03006KT
    BECMG 2516/2518 VRB03KT
    TX21/2512Z TN04/2505Z=
---------------------------------------------------------------------------
	(NOTAMS)


FALA A1486/18 CRANE (255602S 0275530E) ERECTED NORTH OF TERMINAL
    BLDG (37M AGL). 06 APR 06:14 2018 UNTIL 02 JUL 14:00 2018
    ESTIMATED. CREATED: 06 APR 06:15 2018

FALA A1626/18 ATC TRG ON TWR 124.0 MHZ TAKING PLACE. 16 APR 09:24
    2018 UNTIL 13 JUL 09:00 2018 ESTIMATED. CREATED: 16 APR 09:28
    2018

FALA A1657/18 STEYN CITY CENTRE, DIEPSLOOT, JOHANNESBURG (255821S
    0280044E, 255822S 0280047E): 2X CRANES (155FT AGL) WITH DAY
    AND NGT MARKINGS ERECTED. 17 APR 08:34 2018 UNTIL 13 JUL
    10:00 2018 ESTIMATED. CREATED: 17 APR 08:34 2018

FALA A1841/18 ATIS 127.65 MHZ U/S. 30 APR 13:23 2018 UNTIL 30
    JUN 15:00 2018 ESTIMATED. CREATED: 30 APR 13:35 2018

FALA A2035/18 ALONG R511, RIVERGLEN (255823.63S 0280037.35E ,
    255827.47S 0280038.35E, 255833S 0280041E): 3 CRANES (200FT
    AGL) WITH DAY AND NGT MARKINGS ERECTED. 17 MAY 12:21 2018
    UNTIL PERM. CREATED: 17 MAY 12:21 2018

FALA A2416/18 ATC TRG ON SMC 121.65 MHZ TAKING PLACE. 16 JUN
    10:00 2018 UNTIL 16 AUG 10:00 2018 ESTIMATED. CREATED: 16
    JUN 10:53 2018

FALA A2492/18 BILL HARROPS, MAGALIESBURG (254436S 0273243E, 255558S
    0273313E, 255519S 0275125E, 254455S 0275101E): HOT AIR BALLOON
    OPS TAKING PLACE. GND - 7500FT AMSL, 24 JUN 1400-1600 25
    JUN - 27 JUN DLY 0400-0730, 1400-1600 28 JUN 0400-0730, 24
    JUN 14:00 2018 UNTIL 28 JUN 07:30 2018. CREATED: 21 JUN 10:12
    2018

FALA A2503/18 TXL (ENTRANCE TO 43 AIRSCHOOL HANGAR) CLSD FOR
    MAINT. 22 JUN 08:56 2018 UNTIL 02 AUG 14:00 2018 ESTIMATED.
    CREATED: 22 JUN 09:39 2018

---------------------------------------------------------------------------